This is the latest recevied weather packets stored in our database for station/object K6ALF. If no packets are shown the sender has not sent any weather packets the latest 10 day(s).
| Time | Temp. | Humidity | Pressure | Rain* | Wind** | Luminosity | Snow |
|---|---|---|---|---|---|---|---|
| 1777234521 | 15° C | 91% | 1012.4 hPa | 0 mm | - | - | - |
| 1777222821 | 12.22° C | 93% | 1011.9 hPa | 0 mm | - | - | - |
| 1777212021 | 11.11° C | 87% | 1010.6 hPa | 0 mm | - | - | - |
| 1777205721 | 12.22° C | 81% | 1009.7 hPa | 0 mm | - | - | - |
| 1777203020 | 12.22° C | 81% | 1009.6 hPa | 0 mm | - | - | - |
| 1777201220 | 12.22° C | 80% | 1009.5 hPa | 0 mm | - | - | - |
| 1777180554 | 13.33° C | 74% | 1009.8 hPa | 0 mm | - | - | - |
| 1777171522 | 14.44° C | 68% | 1008.8 hPa | 0 mm | - | - | - |
| 1777169722 | 15.56° C | 68% | 1008.8 hPa | 0 mm | - | - | - |
| 1777167023 | 15.56° C | 65% | 1008.9 hPa | 0 mm | - | - | - |
| 1777166121 | 16.11° C | 64% | 1008.9 hPa | 0 mm | - | - | - |
| 1777165254 | 16.11° C | 65% | 1008.8 hPa | 0 mm | - | - | - |
| 1777162521 | 16.67° C | 63% | 1008.9 hPa | 0 mm | - | - | - |
| 1777153521 | 17.22° C | 64% | 1009.7 hPa | 0 mm | - | - | - |
| 1777149921 | 17.22° C | 62% | 1010 hPa | 0 mm | - | - | - |
| 1777142721 | 15.56° C | 70% | 1011 hPa | 0 mm | - | - | - |
| 1777141822 | 15° C | 70% | 1011.1 hPa | 0 mm | - | - | - |
| 1777140921 | 15.56° C | 70% | 1011.2 hPa | 0 mm | - | - | - |
| 1777131953 | 12.78° C | 80% | 1010.5 hPa | 0 mm | - | - | - |
| 1777125621 | 11.11° C | 85% | 1010.1 hPa | 0 mm | - | - | - |
| 1777121121 | 11.11° C | 86% | 1010 hPa | 0 mm | - | - | - |
| 1777117522 | 11.11° C | 86% | 1010.2 hPa | 0 mm | - | - | - |
| 1777115722 | 11.11° C | 86% | 1010.2 hPa | 0 mm | - | - | - |
| 1777113922 | 11.11° C | 86% | 1010 hPa | 0 mm | - | - | - |
| 1777113056 | 11.11° C | 86% | 1010.1 hPa | 0 mm | - | - | - |
* Rain latest hour (hover to see other rain measurements)
** Current wind speed in m/s (hover to see current wind gust speed)